createdAt,value
2023-02-05T00:01:39.866Z,4.13
2023-02-05T00:04:07.890Z,4.50
2023-02-05T00:06:36.898Z,4.13
2023-02-05T00:09:04.562Z,4.77
2023-02-05T00:11:32.286Z,5.67
2023-02-05T00:14:01.997Z,7.70
2023-02-05T00:16:29.964Z,5.27
2023-02-05T00:18:57.857Z,7.47
2023-02-05T00:21:25.570Z,6.03
2023-02-05T00:23:54.786Z,7.20
2023-02-05T00:26:22.442Z,4.63
2023-02-05T00:28:50.184Z,5.93
2023-02-05T00:31:19.792Z,5.20
2023-02-05T00:33:48.472Z,4.17
2023-02-05T00:36:16.426Z,3.70
2023-02-05T00:38:44.809Z,3.27
2023-02-05T00:41:14.142Z,4.10
2023-02-05T00:43:42.359Z,4.73
2023-02-05T00:46:10.806Z,4.00
2023-02-05T00:48:38.838Z,3.30
2023-02-05T00:51:07.141Z,2.97
2023-02-05T00:53:34.925Z,2.03
2023-02-05T00:56:02.910Z,4.23
2023-02-05T00:58:32.091Z,3.57
2023-02-05T01:01:02.100Z,2.43
2023-02-05T01:03:29.826Z,3.43
2023-02-05T01:05:57.738Z,2.10
2023-02-05T01:08:25.437Z,2.90
2023-02-05T01:10:53.292Z,1.83
2023-02-05T01:13:20.962Z,2.50
2023-02-05T01:15:50.008Z,1.47
2023-02-05T01:18:18.055Z,1.60
2023-02-05T01:20:45.817Z,1.20
2023-02-05T01:23:13.511Z,1.90
2023-02-05T01:25:41.200Z,1.80
2023-02-05T01:28:08.917Z,2.87
2023-02-05T01:30:36.867Z,3.13
2023-02-05T01:33:05.914Z,3.53
2023-02-05T01:35:34.249Z,3.03
2023-02-05T01:38:02.061Z,3.03
2023-02-05T01:40:29.759Z,1.77
2023-02-05T01:42:57.428Z,2.17
2023-02-05T01:45:58.774Z,1.77
2023-02-05T01:48:30.449Z,2.20
2023-02-05T01:51:00.871Z,1.73
2023-02-05T01:53:32.437Z,1.37
2023-02-05T01:56:01.737Z,2.07
2023-02-05T01:58:32.507Z,1.30
2023-02-05T02:01:00.177Z,2.30
2023-02-05T02:03:29.444Z,1.87
2023-02-05T02:05:57.515Z,1.60
2023-02-05T02:08:25.276Z,1.20
2023-02-05T02:10:53.821Z,2.07
2023-02-05T02:13:22.482Z,1.23
2023-02-05T02:15:50.697Z,1.30
2023-02-05T02:18:27.435Z,1.57
2023-02-05T02:21:15.702Z,1.47
2023-02-05T02:23:54.276Z,1.10
2023-02-05T02:26:33.828Z,1.07
2023-02-05T02:29:03.869Z,0.97
2023-02-05T02:31:34.685Z,1.23
2023-02-05T02:34:05.571Z,1.37
2023-02-05T02:36:37.070Z,1.27
2023-02-05T02:39:10.313Z,0.90
2023-02-05T02:41:42.685Z,1.43
2023-02-05T02:44:15.793Z,1.23
2023-02-05T02:46:46.247Z,1.53
2023-02-05T02:49:16.773Z,1.20
2023-02-05T02:51:45.260Z,1.03
2023-02-05T02:54:15.426Z,1.27
2023-02-05T02:56:43.355Z,1.00
2023-02-05T02:59:14.722Z,1.13
2023-02-05T03:01:49.617Z,1.50
2023-02-05T03:04:25.214Z,1.20
2023-02-05T03:06:54.758Z,1.67
2023-02-05T03:09:26.312Z,1.13
2023-02-05T03:11:54.053Z,1.20
2023-02-05T03:14:23.134Z,1.50
2023-02-05T03:16:50.867Z,1.43
2023-02-05T03:19:18.576Z,0.77
2023-02-05T03:21:50.239Z,1.10
2023-02-05T03:24:18.270Z,1.30
2023-02-05T03:26:45.972Z,1.30
2023-02-05T03:29:16.108Z,1.33
2023-02-05T03:31:50.857Z,1.00
2023-02-05T03:34:27.998Z,1.40
2023-02-05T03:37:05.860Z,1.30
2023-02-05T03:39:43.989Z,0.80
2023-02-05T03:42:19.204Z,0.80
2023-02-05T03:44:59.676Z,1.20
2023-02-05T03:47:36.651Z,0.90
2023-02-05T03:50:12.587Z,1.60
2023-02-05T03:52:43.467Z,1.20
2023-02-05T03:55:15.334Z,1.43
2023-02-05T03:57:46.066Z,1.03
2023-02-05T04:00:14.677Z,1.10
2023-02-05T04:02:44.055Z,1.00
2023-02-05T04:05:11.703Z,1.90
2023-02-05T04:07:39.335Z,1.43
2023-02-05T04:10:07.661Z,0.80
2023-02-05T04:12:35.350Z,1.10
2023-02-05T04:15:03.338Z,1.27
2023-02-05T04:17:30.990Z,1.70
2023-02-05T04:19:59.991Z,1.30
2023-02-05T04:22:27.647Z,1.20
2023-02-05T04:24:55.344Z,1.30
2023-02-05T04:27:23.051Z,1.07
2023-02-05T04:29:50.701Z,1.10
2023-02-05T04:32:18.413Z,1.10
2023-02-05T04:34:46.008Z,1.10
2023-02-05T04:37:15.028Z,1.50
2023-02-05T04:39:42.680Z,1.20
2023-02-05T04:45:05.912Z,1.57
2023-02-05T04:47:33.863Z,1.47
2023-02-05T04:50:01.546Z,1.40
2023-02-05T04:52:30.686Z,1.30
2023-02-05T04:54:58.441Z,1.50
2023-02-05T04:57:26.088Z,1.37
2023-02-05T04:59:53.765Z,1.50
2023-02-05T05:02:21.411Z,1.60
2023-02-05T05:04:49.097Z,1.40
2023-02-05T05:07:16.847Z,1.63
2023-02-05T05:09:45.884Z,1.67
2023-02-05T05:12:13.583Z,1.40
2023-02-05T05:14:41.268Z,1.50
2023-02-05T05:17:08.990Z,1.30
2023-02-05T05:19:37.072Z,1.20
2023-02-05T05:22:04.781Z,1.57
2023-02-05T05:24:32.512Z,1.33
2023-02-05T05:27:01.647Z,2.80
2023-02-05T05:29:29.394Z,1.93
2023-02-05T05:31:57.094Z,1.70
2023-02-05T05:34:24.849Z,1.33
2023-02-05T05:36:53.523Z,1.83
2023-02-05T05:39:39.205Z,1.70
2023-02-05T05:44:50.106Z,1.23
2023-02-05T05:47:18.025Z,1.40
2023-02-05T05:49:45.782Z,1.10
2023-02-05T05:52:13.546Z,1.20
2023-02-05T05:54:41.227Z,1.50
2023-02-05T05:57:09.527Z,1.20
2023-02-05T05:59:37.557Z,1.53
2023-02-05T06:02:06.587Z,1.40
2023-02-05T06:04:34.335Z,1.10
2023-02-05T06:07:02.270Z,1.10
2023-02-05T06:09:30.164Z,1.57
2023-02-05T06:11:57.814Z,1.03
2023-02-05T06:14:25.482Z,1.33
2023-02-05T06:16:55.176Z,1.47
2023-02-05T06:19:24.342Z,1.07
2023-02-05T06:21:52.020Z,1.20
2023-02-05T06:24:19.669Z,1.10
2023-02-05T06:26:47.331Z,1.83
2023-02-05T06:29:15.019Z,1.10
2023-02-05T06:31:42.785Z,1.10
2023-02-05T06:34:10.508Z,1.40
2023-02-05T06:36:39.475Z,1.70
2023-02-05T06:39:07.120Z,1.20
2023-02-05T06:41:34.765Z,1.60
2023-02-05T06:44:03.933Z,1.57
2023-02-05T06:46:31.621Z,1.30
2023-02-05T06:48:59.360Z,1.30
2023-02-05T06:51:27.065Z,1.13
2023-02-05T06:53:57.494Z,1.30
2023-02-05T06:56:25.428Z,1.57
2023-02-05T06:58:53.065Z,1.40
2023-02-05T07:01:20.776Z,1.50
2023-02-05T07:03:48.627Z,1.80
2023-02-05T07:06:16.530Z,1.50
2023-02-05T07:08:44.348Z,1.60
2023-02-05T07:11:13.367Z,1.70
2023-02-05T07:13:41.036Z,1.33
2023-02-05T07:16:09.085Z,1.50
2023-02-05T07:18:38.329Z,1.60
2023-02-05T07:21:07.279Z,2.10
2023-02-05T07:23:35.173Z,2.07
2023-02-05T07:26:07.622Z,2.83
2023-02-05T07:28:36.691Z,1.63
2023-02-05T07:31:06.183Z,1.30
2023-02-05T07:33:34.239Z,2.17
2023-02-05T07:36:03.700Z,2.23
2023-02-05T07:38:31.438Z,1.80
2023-02-05T07:40:59.097Z,1.93
2023-02-05T07:43:26.845Z,1.30
2023-02-05T07:45:58.774Z,1.40
2023-02-05T07:48:26.546Z,3.27
2023-02-05T07:50:54.389Z,4.10
2023-02-05T07:53:22.377Z,4.30
2023-02-05T07:55:50.056Z,2.80
2023-02-05T07:58:17.830Z,2.20
2023-02-05T08:00:45.475Z,2.37
2023-02-05T08:03:14.961Z,1.90
2023-02-05T08:05:42.607Z,1.30
2023-02-05T08:08:11.302Z,1.30
2023-02-05T08:10:39.104Z,1.80
2023-02-05T08:13:06.839Z,1.50
2023-02-05T08:15:34.747Z,1.80
2023-02-05T08:18:02.483Z,1.50
2023-02-05T08:20:31.575Z,1.20
2023-02-05T08:22:59.578Z,1.37
2023-02-05T08:25:27.321Z,1.50
2023-02-05T08:27:55.014Z,2.50
2023-02-05T08:30:23.437Z,1.23
2023-02-05T08:32:52.684Z,1.30
2023-02-05T08:35:20.304Z,1.23
2023-02-05T08:37:49.309Z,1.43
2023-02-05T08:40:17.069Z,1.80
2023-02-05T08:42:44.749Z,2.90
2023-02-05T08:45:12.435Z,5.10
2023-02-05T08:47:40.109Z,6.10
2023-02-05T08:50:08.936Z,5.33
2023-02-05T08:52:36.654Z,4.73
2023-02-05T08:55:06.674Z,4.77
2023-02-05T08:57:34.562Z,3.53
2023-02-05T09:00:02.260Z,3.53
2023-02-05T09:02:32.087Z,3.47
2023-02-05T09:05:08.544Z,2.77
2023-02-05T09:07:37.578Z,3.17
2023-02-05T09:10:07.778Z,3.07
2023-02-05T09:12:35.385Z,2.03
2023-02-05T09:15:03.056Z,3.00
2023-02-05T09:17:30.805Z,2.17
2023-02-05T09:19:58.593Z,2.47
2023-02-05T09:22:26.336Z,2.03
2023-02-05T09:24:54.050Z,1.77
2023-02-05T09:27:23.218Z,2.03
2023-02-05T09:29:50.858Z,2.40
2023-02-05T09:32:18.522Z,1.83
2023-02-05T09:34:46.135Z,2.10
2023-02-05T09:37:13.755Z,3.73
2023-02-05T09:40:18.949Z,2.40
2023-02-05T09:45:23.718Z,2.43
2023-02-05T09:47:55.639Z,2.43
2023-02-05T09:50:27.774Z,2.53
2023-02-05T09:52:58.557Z,2.93
2023-02-05T09:55:28.026Z,2.17
2023-02-05T09:58:00.764Z,2.00
2023-02-05T10:00:32.660Z,1.93
2023-02-05T10:03:09.117Z,3.13
2023-02-05T10:05:39.928Z,1.77
2023-02-05T10:08:11.231Z,2.27
2023-02-05T10:10:41.656Z,2.33
2023-02-05T10:13:32.220Z,1.83
2023-02-05T10:16:38.734Z,2.30
2023-02-05T10:19:28.344Z,3.07
2023-02-05T10:22:12.027Z,2.57
2023-02-05T10:24:57.890Z,2.63
2023-02-05T10:27:27.514Z,2.23
2023-02-05T10:30:00.696Z,2.60
2023-02-05T10:32:35.807Z,2.60
2023-02-05T10:35:21.457Z,2.83
2023-02-05T10:37:52.853Z,2.63
2023-02-05T10:40:22.954Z,1.77
2023-02-05T10:45:28.020Z,2.00
2023-02-05T10:48:06.630Z,2.27
2023-02-05T10:50:47.457Z,2.27
2023-02-05T10:53:20.838Z,2.63
2023-02-05T10:55:48.691Z,2.83
2023-02-05T10:58:29.641Z,2.83
2023-02-05T11:00:57.419Z,2.27
2023-02-05T11:03:27.948Z,2.20
2023-02-05T11:05:58.860Z,2.17
2023-02-05T11:08:33.861Z,2.67
2023-02-05T11:11:01.911Z,1.80
2023-02-05T11:13:30.176Z,1.40
2023-02-05T11:15:59.508Z,2.80
2023-02-05T11:18:29.575Z,2.37
2023-02-05T11:21:00.774Z,2.10
2023-02-05T11:23:31.035Z,2.17
2023-02-05T11:26:00.291Z,3.37
2023-02-05T11:28:30.173Z,2.57
2023-02-05T11:30:58.489Z,2.17
2023-02-05T11:33:31.605Z,2.63
2023-02-05T11:36:03.400Z,2.57
2023-02-05T11:38:39.856Z,1.63
2023-02-05T11:41:08.606Z,1.87
2023-02-05T11:43:37.643Z,1.90
2023-02-05T11:46:07.577Z,2.10
2023-02-05T11:48:39.839Z,2.53
2023-02-05T11:51:10.757Z,2.37
2023-02-05T11:53:39.856Z,1.83
2023-02-05T11:56:12.096Z,3.10
2023-02-05T11:58:39.803Z,1.93
2023-02-05T12:01:23.896Z,2.10
2023-02-05T12:04:00.534Z,2.03
2023-02-05T12:06:33.214Z,1.70
2023-02-05T12:09:02.778Z,1.70
2023-02-05T12:12:04.063Z,2.23
2023-02-05T12:14:42.068Z,4.10
2023-02-05T12:17:29.253Z,4.70
2023-02-05T12:20:12.799Z,3.37
2023-02-05T12:23:01.279Z,2.83
2023-02-05T12:25:35.743Z,1.83
2023-02-05T12:28:16.402Z,2.20
2023-02-05T12:30:53.074Z,2.17
2023-02-05T12:33:36.709Z,2.47
2023-02-05T12:36:12.465Z,1.63
2023-02-05T12:38:51.937Z,2.00
2023-02-05T12:41:26.479Z,1.87
2023-02-05T12:43:58.523Z,2.27
2023-02-05T12:46:41.423Z,1.43
2023-02-05T12:49:19.692Z,2.00
2023-02-05T12:51:58.209Z,1.63
2023-02-05T12:54:37.219Z,1.90
2023-02-05T12:57:06.880Z,1.70
2023-02-05T12:59:40.390Z,1.73
2023-02-05T13:02:17.177Z,1.60
2023-02-05T13:04:47.254Z,1.57
2023-02-05T13:07:24.242Z,2.17
2023-02-05T13:09:58.384Z,2.00
2023-02-05T13:12:29.107Z,2.03
2023-02-05T13:15:03.660Z,2.13
2023-02-05T13:17:35.559Z,2.53
2023-02-05T13:20:05.654Z,2.40
2023-02-05T13:22:54.665Z,2.40
2023-02-05T13:25:44.502Z,2.23
2023-02-05T13:28:42.365Z,1.77
2023-02-05T13:31:24.684Z,2.33
2023-02-05T13:33:53.832Z,1.60
2023-02-05T13:36:36.766Z,2.13
2023-02-05T13:39:18.245Z,2.17
2023-02-05T13:42:18.723Z,2.30
2023-02-05T13:45:28.831Z,2.50
2023-02-05T13:48:13.650Z,1.87
2023-02-05T13:51:06.701Z,2.07
2023-02-05T13:53:45.835Z,2.10
2023-02-05T13:56:27.898Z,2.77
2023-02-05T13:58:58.577Z,5.60
2023-02-05T14:01:29.549Z,5.07
2023-02-05T14:03:59.464Z,5.33
2023-02-05T14:06:32.504Z,5.73
2023-02-05T14:09:02.990Z,4.37
2023-02-05T14:11:44.948Z,3.83
2023-02-05T14:14:29.434Z,4.23
2023-02-05T14:17:00.664Z,2.30
2023-02-05T14:19:56.973Z,2.20
2023-02-05T14:22:39.940Z,3.03
2023-02-05T14:25:42.580Z,2.83
2023-02-05T14:28:34.755Z,3.57
2023-02-05T14:31:04.463Z,2.17
2023-02-05T14:33:37.687Z,2.53
2023-02-05T14:36:29.905Z,2.03
2023-02-05T14:39:00.914Z,3.33
2023-02-05T14:41:31.037Z,2.67
2023-02-05T14:44:01.573Z,3.30
2023-02-05T14:46:32.951Z,3.00
2023-02-05T14:49:03.291Z,3.00
2023-02-05T14:51:36.092Z,3.20
2023-02-05T14:54:06.694Z,3.50
2023-02-05T14:56:39.492Z,4.03
2023-02-05T14:59:19.952Z,4.03
2023-02-05T15:01:54.219Z,4.50
2023-02-05T15:04:41.722Z,3.30
2023-02-05T15:07:12.416Z,3.83
2023-02-05T15:09:43.050Z,3.30
2023-02-05T15:12:31.257Z,2.50
2023-02-05T15:14:59.576Z,2.47
2023-02-05T15:17:53.158Z,3.27
2023-02-05T15:20:32.354Z,2.13
2023-02-05T15:23:05.466Z,3.00
2023-02-05T15:25:39.529Z,4.60
2023-02-05T15:28:19.596Z,8.00
2023-02-05T15:30:53.834Z,6.30
2023-02-05T15:33:30.095Z,7.50
2023-02-05T15:35:58.167Z,6.00
2023-02-05T15:38:30.462Z,5.47
2023-02-05T15:40:58.770Z,4.67
2023-02-05T15:43:28.012Z,4.00
2023-02-05T15:46:00.841Z,3.30
2023-02-05T15:48:31.230Z,3.53
2023-02-05T15:51:01.043Z,3.43
2023-02-05T15:53:34.752Z,3.53
2023-02-05T15:56:13.188Z,4.17
2023-02-05T15:58:41.904Z,2.93
2023-02-05T16:01:11.286Z,2.80
2023-02-05T16:03:40.294Z,3.80
2023-02-05T16:06:13.940Z,3.20
2023-02-05T16:08:47.064Z,3.40
2023-02-05T16:11:26.825Z,4.57
2023-02-05T16:14:05.053Z,3.07
2023-02-05T16:16:34.689Z,2.73
2023-02-05T16:19:05.599Z,3.63
2023-02-05T16:21:35.505Z,3.60
2023-02-05T16:24:05.265Z,2.93
2023-02-05T16:26:38.500Z,3.60
2023-02-05T16:29:11.683Z,3.57
2023-02-05T16:31:48.201Z,3.40
2023-02-05T16:34:18.583Z,4.23
2023-02-05T16:36:48.370Z,4.30
2023-02-05T16:39:20.792Z,3.73
2023-02-05T16:42:02.296Z,4.77
2023-02-05T16:44:31.811Z,4.50
2023-02-05T16:47:08.019Z,6.70
2023-02-05T16:49:40.870Z,5.67
2023-02-05T16:52:27.183Z,7.10
2023-02-05T16:54:55.472Z,10.10
2023-02-05T16:57:31.361Z,8.10
2023-02-05T17:00:01.582Z,7.40
2023-02-05T17:02:33.629Z,6.53
2023-02-05T17:05:04.533Z,6.53
2023-02-05T17:07:35.475Z,8.30
2023-02-05T17:10:22.426Z,6.80
2023-02-05T17:12:56.534Z,5.57
2023-02-05T17:15:40.516Z,6.57
2023-02-05T17:18:23.535Z,6.23
2023-02-05T17:20:53.101Z,6.67
2023-02-05T17:23:20.750Z,7.57
2023-02-05T17:25:55.121Z,6.47
2023-02-05T17:28:27.466Z,7.83
2023-02-05T17:30:57.706Z,8.83
2023-02-05T17:33:27.784Z,10.00
2023-02-05T17:35:56.845Z,11.80
2023-02-05T17:38:24.633Z,11.80
2023-02-05T17:41:13.457Z,10.63
2023-02-05T17:43:42.374Z,11.60
2023-02-05T17:46:13.287Z,11.20
2023-02-05T17:48:41.113Z,12.47
2023-02-05T17:51:17.893Z,13.00
2023-02-05T17:53:45.573Z,14.67
2023-02-05T17:56:13.706Z,15.30
2023-02-05T17:58:41.706Z,16.77
2023-02-05T18:01:11.805Z,16.77
2023-02-05T18:03:39.527Z,16.00
2023-02-05T18:06:07.458Z,14.43
2023-02-05T18:08:37.139Z,12.77
2023-02-05T18:11:05.489Z,12.13
2023-02-05T18:13:33.173Z,12.43
2023-02-05T18:16:03.488Z,11.20
2023-02-05T18:18:31.778Z,9.50
2023-02-05T18:20:59.590Z,9.40
2023-02-05T18:23:29.484Z,8.73
2023-02-05T18:25:59.539Z,7.40
2023-02-05T18:28:27.471Z,8.03
2023-02-05T18:30:59.925Z,9.53
2023-02-05T18:33:27.827Z,9.67
2023-02-05T18:35:55.731Z,11.00
2023-02-05T18:38:23.465Z,10.70
2023-02-05T18:40:51.461Z,10.90
2023-02-05T18:43:20.462Z,10.27
2023-02-05T18:45:48.226Z,10.97
2023-02-05T18:48:15.974Z,10.33
2023-02-05T18:50:43.599Z,11.20
2023-02-05T18:53:11.217Z,11.50
2023-02-05T18:55:38.878Z,12.07
2023-02-05T18:58:07.181Z,8.93
2023-02-05T19:00:36.444Z,11.20
2023-02-05T19:03:04.210Z,10.77
2023-02-05T19:05:31.942Z,11.67
2023-02-05T19:07:59.794Z,12.83
2023-02-05T19:10:27.435Z,12.60
2023-02-05T19:12:55.048Z,13.17
2023-02-05T19:15:22.682Z,13.00
2023-02-05T19:17:51.905Z,15.97
2023-02-05T19:20:19.552Z,14.37
2023-02-05T19:22:47.249Z,13.80
2023-02-05T19:25:14.929Z,14.93
2023-02-05T19:27:42.592Z,14.67
2023-02-05T19:30:14.030Z,13.50
2023-02-05T19:32:41.755Z,13.43
2023-02-05T19:35:10.899Z,11.57
2023-02-05T19:37:38.606Z,12.00
2023-02-05T19:40:07.508Z,10.53
2023-02-05T19:42:35.213Z,12.23
2023-02-05T19:45:02.903Z,12.13
2023-02-05T19:47:30.599Z,11.93
2023-02-05T19:49:58.272Z,11.30
2023-02-05T19:52:27.291Z,12.57
2023-02-05T19:54:54.977Z,12.03
2023-02-05T19:57:22.657Z,12.00
2023-02-05T19:59:50.354Z,13.23
2023-02-05T20:02:19.370Z,11.23
2023-02-05T20:04:47.154Z,13.20
2023-02-05T20:07:14.800Z,10.00
2023-02-05T20:09:43.840Z,10.07
2023-02-05T20:12:13.149Z,9.83
2023-02-05T20:14:40.868Z,10.17
2023-02-05T20:17:09.095Z,8.73
2023-02-05T20:19:36.997Z,7.80
2023-02-05T20:22:04.698Z,7.83
2023-02-05T20:24:32.545Z,7.20
2023-02-05T20:27:01.535Z,6.50
2023-02-05T20:29:46.526Z,6.83
2023-02-05T20:32:14.192Z,5.23
2023-02-05T20:34:44.827Z,4.93
2023-02-05T20:37:12.676Z,4.57
2023-02-05T20:39:42.566Z,5.10
2023-02-05T20:42:13.371Z,4.10
2023-02-05T20:44:41.626Z,3.70
2023-02-05T20:47:11.548Z,2.97
2023-02-05T20:49:41.239Z,3.13
2023-02-05T20:52:09.567Z,2.97
2023-02-05T20:54:37.518Z,3.20
2023-02-05T20:57:05.418Z,2.87
2023-02-05T20:59:36.497Z,4.47
2023-02-05T21:02:06.681Z,3.17
2023-02-05T21:04:34.401Z,2.63
2023-02-05T21:07:02.297Z,2.67
2023-02-05T21:09:30.188Z,3.40
2023-02-05T21:11:57.840Z,2.37
2023-02-05T21:14:25.498Z,2.53
2023-02-05T21:16:54.519Z,2.40
2023-02-05T21:19:23.165Z,2.20
2023-02-05T21:21:51.176Z,3.23
2023-02-05T21:24:20.586Z,2.37
2023-02-05T21:26:50.211Z,2.87
2023-02-05T21:29:19.939Z,2.43
2023-02-05T21:31:48.839Z,2.30
2023-02-05T21:34:19.436Z,2.33
2023-02-05T21:36:48.865Z,3.27
2023-02-05T21:39:16.727Z,2.40
2023-02-05T21:41:44.878Z,2.23
2023-02-05T21:44:12.665Z,2.10
2023-02-05T21:46:40.800Z,2.67
2023-02-05T21:49:08.526Z,2.40
2023-02-05T21:51:37.740Z,2.10
2023-02-05T21:54:07.130Z,2.20
2023-02-05T21:56:36.631Z,2.00
2023-02-05T21:59:04.723Z,2.10
2023-02-05T22:01:33.765Z,3.03
2023-02-05T22:04:02.811Z,2.10
2023-02-05T22:06:34.417Z,2.40
2023-02-05T22:09:04.938Z,2.73
2023-02-05T22:11:34.811Z,3.00
2023-02-05T22:14:02.543Z,2.70
2023-02-05T22:16:31.830Z,2.90
2023-02-05T22:19:02.084Z,2.57
2023-02-05T22:21:31.460Z,2.77
2023-02-05T22:24:00.566Z,5.23
2023-02-05T22:26:31.625Z,2.77
2023-02-05T22:29:00.591Z,1.93
2023-02-05T22:31:29.241Z,2.03
2023-02-05T22:33:58.057Z,2.33
2023-02-05T22:36:28.480Z,2.90
2023-02-05T22:38:56.651Z,2.17
2023-02-05T22:41:26.181Z,2.10
2023-02-05T22:43:56.712Z,2.67
2023-02-05T22:46:26.182Z,2.77
2023-02-05T22:48:54.608Z,2.77
2023-02-05T22:51:24.008Z,3.23
2023-02-05T22:53:53.127Z,2.10
2023-02-05T22:56:21.519Z,2.70
2023-02-05T22:58:50.112Z,2.80
2023-02-05T23:01:20.669Z,2.10
2023-02-05T23:03:49.395Z,2.30
2023-02-05T23:06:19.470Z,2.63
2023-02-05T23:08:50.647Z,2.57
2023-02-05T23:11:18.368Z,3.07
2023-02-05T23:13:47.546Z,2.07
2023-02-05T23:16:16.905Z,2.10
2023-02-05T23:18:46.445Z,2.73
2023-02-05T23:21:15.949Z,2.77
2023-02-05T23:23:44.042Z,3.83
2023-02-05T23:26:13.932Z,3.83
2023-02-05T23:28:41.646Z,3.23
2023-02-05T23:31:09.445Z,4.17
2023-02-05T23:33:37.630Z,3.20
2023-02-05T23:36:08.361Z,2.80
2023-02-05T23:38:36.424Z,2.47
2023-02-05T23:41:04.717Z,2.77
2023-02-05T23:43:34.884Z,2.30
2023-02-05T23:46:02.872Z,2.43
2023-02-05T23:48:30.533Z,2.30
2023-02-05T23:50:58.207Z,2.20
2023-02-05T23:53:27.561Z,2.10
2023-02-05T23:55:55.576Z,2.20
2023-02-05T23:58:23.996Z,2.33
